sensor_id;sensor_type;location;lat;lon;timestamp;pressure;altitude;pressure_sealevel;temperature;humidity
45285;BME280;31026;43.780;25.948;2023-08-06T00:00:45;99435.44;;;26.92;62.89
45285;BME280;31026;43.780;25.948;2023-08-06T00:03:16;99427.66;;;26.95;62.66
45285;BME280;31026;43.780;25.948;2023-08-06T00:05:44;99433.09;;;26.95;62.82
45285;BME280;31026;43.780;25.948;2023-08-06T00:08:12;99423.13;;;26.89;62.91
45285;BME280;31026;43.780;25.948;2023-08-06T00:10:41;99414.97;;;26.89;62.87
45285;BME280;31026;43.780;25.948;2023-08-06T00:13:09;99406.41;;;26.92;62.74
45285;BME280;31026;43.780;25.948;2023-08-06T00:15:37;99420.72;;;26.99;62.70
45285;BME280;31026;43.780;25.948;2023-08-06T00:18:05;99394.50;;;26.93;62.63
45285;BME280;31026;43.780;25.948;2023-08-06T00:20:36;99390.97;;;26.93;62.68
45285;BME280;31026;43.780;25.948;2023-08-06T00:23:06;99399.78;;;26.88;62.86
45285;BME280;31026;43.780;25.948;2023-08-06T00:25:34;99393.28;;;26.89;62.81
45285;BME280;31026;43.780;25.948;2023-08-06T00:28:02;99399.91;;;26.93;62.86
45285;BME280;31026;43.780;25.948;2023-08-06T00:30:31;99410.16;;;26.91;63.07
45285;BME280;31026;43.780;25.948;2023-08-06T00:32:59;99400.53;;;26.95;62.66
45285;BME280;31026;43.780;25.948;2023-08-06T00:35:27;99402.63;;;26.93;62.99
45285;BME280;31026;43.780;25.948;2023-08-06T00:37:58;99375.97;;;26.90;63.08
45285;BME280;31026;43.780;25.948;2023-08-06T00:40:26;99382.63;;;26.88;63.18
45285;BME280;31026;43.780;25.948;2023-08-06T00:42:55;99382.28;;;26.84;63.12
45285;BME280;31026;43.780;25.948;2023-08-06T00:45:24;99379.28;;;26.92;62.95
45285;BME280;31026;43.780;25.948;2023-08-06T00:47:53;99384.94;;;26.91;62.74
45285;BME280;31026;43.780;25.948;2023-08-06T00:50:21;99394.50;;;26.93;62.93
45285;BME280;31026;43.780;25.948;2023-08-06T00:52:49;99407.03;;;26.94;62.82
45285;BME280;31026;43.780;25.948;2023-08-06T00:55:20;99397.66;;;26.90;62.72
45285;BME280;31026;43.780;25.948;2023-08-06T00:57:49;99392.44;;;26.89;63.07
45285;BME280;31026;43.780;25.948;2023-08-06T01:00:21;99400.25;;;27.04;62.61
45285;BME280;31026;43.780;25.948;2023-08-06T01:02:50;99377.19;;;26.94;62.94
45285;BME280;31026;43.780;25.948;2023-08-06T01:05:18;99392.63;;;26.94;62.86
45285;BME280;31026;43.780;25.948;2023-08-06T01:07:49;99411.00;;;26.92;63.03
45285;BME280;31026;43.780;25.948;2023-08-06T01:10:26;99408.50;;;26.90;62.97
45285;BME280;31026;43.780;25.948;2023-08-06T01:13:00;99391.38;;;26.90;63.09
45285;BME280;31026;43.780;25.948;2023-08-06T01:15:35;99400.16;;;26.92;63.03
45285;BME280;31026;43.780;25.948;2023-08-06T01:18:06;99403.91;;;26.91;62.97
45285;BME280;31026;43.780;25.948;2023-08-06T01:20:38;99398.41;;;26.97;62.81
45285;BME280;31026;43.780;25.948;2023-08-06T01:23:06;99408.44;;;26.97;62.94
45285;BME280;31026;43.780;25.948;2023-08-06T01:25:35;99408.91;;;26.94;62.79
45285;BME280;31026;43.780;25.948;2023-08-06T01:28:10;99417.47;;;26.91;63.16
45285;BME280;31026;43.780;25.948;2023-08-06T01:30:39;99398.50;;;26.91;62.96
45285;BME280;31026;43.780;25.948;2023-08-06T01:33:09;99425.19;;;26.94;62.73
45285;BME280;31026;43.780;25.948;2023-08-06T01:35:42;99416.66;;;26.90;62.83
45285;BME280;31026;43.780;25.948;2023-08-06T01:38:11;99425.81;;;26.89;63.13
45285;BME280;31026;43.780;25.948;2023-08-06T01:40:39;99426.28;;;26.86;62.99
45285;BME280;31026;43.780;25.948;2023-08-06T01:43:07;99445.63;;;26.90;62.91
45285;BME280;31026;43.780;25.948;2023-08-06T01:45:36;99448.13;;;26.91;63.00
45285;BME280;31026;43.780;25.948;2023-08-06T01:48:04;99449.34;;;26.95;62.78
45285;BME280;31026;43.780;25.948;2023-08-06T01:50:32;99439.19;;;26.91;63.05
45285;BME280;31026;43.780;25.948;2023-08-06T01:53:03;99450.22;;;26.96;62.79
45285;BME280;31026;43.780;25.948;2023-08-06T01:55:31;99447.53;;;26.89;62.85
45285;BME280;31026;43.780;25.948;2023-08-06T01:58:00;99427.03;;;26.93;62.87
45285;BME280;31026;43.780;25.948;2023-08-06T02:00:28;99442.94;;;26.90;62.84
45285;BME280;31026;43.780;25.948;2023-08-06T02:02:56;99432.31;;;26.88;63.06
45285;BME280;31026;43.780;25.948;2023-08-06T02:05:24;99424.56;;;26.92;62.78
45285;BME280;31026;43.780;25.948;2023-08-06T02:07:53;99428.53;;;26.89;62.78
45285;BME280;31026;43.780;25.948;2023-08-06T02:10:24;99423.13;;;26.89;63.15
45285;BME280;31026;43.780;25.948;2023-08-06T02:12:52;99444.53;;;26.97;62.81
45285;BME280;31026;43.780;25.948;2023-08-06T02:15:21;99451.47;;;26.93;62.93
45285;BME280;31026;43.780;25.948;2023-08-06T02:17:49;99452.75;;;26.91;62.91
45285;BME280;31026;43.780;25.948;2023-08-06T02:20:17;99444.81;;;26.89;62.96
45285;BME280;31026;43.780;25.948;2023-08-06T02:22:45;99451.53;;;26.87;62.92
45285;BME280;31026;43.780;25.948;2023-08-06T02:25:14;99448.59;;;26.88;62.96
45285;BME280;31026;43.780;25.948;2023-08-06T02:27:45;99439.25;;;26.84;63.23
45285;BME280;31026;43.780;25.948;2023-08-06T02:30:13;99459.00;;;26.91;62.82
45285;BME280;31026;43.780;25.948;2023-08-06T02:32:41;99468.19;;;26.90;62.97
45285;BME280;31026;43.780;25.948;2023-08-06T02:35:09;99456.88;;;26.93;62.96
45285;BME280;31026;43.780;25.948;2023-08-06T02:37:38;99455.25;;;26.86;63.01
45285;BME280;31026;43.780;25.948;2023-08-06T02:40:07;99461.53;;;26.86;63.07
45285;BME280;31026;43.780;25.948;2023-08-06T02:42:35;99456.94;;;26.87;63.20
45285;BME280;31026;43.780;25.948;2023-08-06T02:45:07;99448.13;;;26.91;62.79
45285;BME280;31026;43.780;25.948;2023-08-06T02:47:35;99456.13;;;26.86;62.96
45285;BME280;31026;43.780;25.948;2023-08-06T02:50:04;99468.00;;;26.85;63.26
45285;BME280;31026;43.780;25.948;2023-08-06T02:52:32;99477.81;;;26.86;63.44
45285;BME280;31026;43.780;25.948;2023-08-06T02:55:00;99483.66;;;26.83;63.37
45285;BME280;31026;43.780;25.948;2023-08-06T02:57:29;99485.78;;;26.81;62.93
45285;BME280;31026;43.780;25.948;2023-08-06T02:59:57;99459.25;;;26.83;63.16
45285;BME280;31026;43.780;25.948;2023-08-06T03:02:28;99462.44;;;26.80;63.30
45285;BME280;31026;43.780;25.948;2023-08-06T03:04:56;99484.13;;;26.80;63.21
45285;BME280;31026;43.780;25.948;2023-08-06T03:07:24;99470.56;;;26.80;63.15
45285;BME280;31026;43.780;25.948;2023-08-06T03:09:53;99465.97;;;26.81;63.10
45285;BME280;31026;43.780;25.948;2023-08-06T03:12:21;99458.03;;;26.79;63.31
45285;BME280;31026;43.780;25.948;2023-08-06T03:14:49;99452.81;;;26.84;63.27
45285;BME280;31026;43.780;25.948;2023-08-06T03:17:17;99445.69;;;26.83;63.01
45285;BME280;31026;43.780;25.948;2023-08-06T03:19:48;99465.75;;;26.82;63.25
45285;BME280;31026;43.780;25.948;2023-08-06T03:22:17;99463.19;;;26.87;63.07
45285;BME280;31026;43.780;25.948;2023-08-06T03:24:45;99468.00;;;26.85;63.14
45285;BME280;31026;43.780;25.948;2023-08-06T03:27:13;99448.19;;;26.85;63.16
45285;BME280;31026;43.780;25.948;2023-08-06T03:29:41;99463.88;;;26.83;63.20
45285;BME280;31026;43.780;25.948;2023-08-06T03:32:09;99459.47;;;26.82;63.29
45285;BME280;31026;43.780;25.948;2023-08-06T03:34:41;99465.34;;;26.78;63.28
45285;BME280;31026;43.780;25.948;2023-08-06T03:37:12;99460.13;;;26.77;63.33
45285;BME280;31026;43.780;25.948;2023-08-06T03:39:40;99459.94;;;26.78;63.14
45285;BME280;31026;43.780;25.948;2023-08-06T03:42:08;99454.91;;;26.82;63.03
45285;BME280;31026;43.780;25.948;2023-08-06T03:44:36;99450.50;;;26.81;63.03
45285;BME280;31026;43.780;25.948;2023-08-06T03:47:05;99436.75;;;26.83;63.03
45285;BME280;31026;43.780;25.948;2023-08-06T03:49:34;99443.19;;;26.82;63.22
45285;BME280;31026;43.780;25.948;2023-08-06T03:52:03;99451.53;;;26.87;63.32
45285;BME280;31026;43.780;25.948;2023-08-06T03:54:34;99443.59;;;26.85;63.09
45285;BME280;31026;43.780;25.948;2023-08-06T03:57:03;99444.41;;;26.86;63.08
45285;BME280;31026;43.780;25.948;2023-08-06T03:59:31;99430.69;;;26.81;63.19
45285;BME280;31026;43.780;25.948;2023-08-06T04:01:59;99421.75;;;26.80;62.84
45285;BME280;31026;43.780;25.948;2023-08-06T04:04:27;99438.22;;;26.78;63.14
45285;BME280;31026;43.780;25.948;2023-08-06T04:06:56;99425.44;;;26.86;63.02
45285;BME280;31026;43.780;25.948;2023-08-06T04:09:24;99420.25;;;26.84;63.07
45285;BME280;31026;43.780;25.948;2023-08-06T04:11:55;99415.59;;;26.91;62.84
45285;BME280;31026;43.780;25.948;2023-08-06T04:14:23;99425.41;;;26.92;62.93
45285;BME280;31026;43.780;25.948;2023-08-06T04:16:52;99421.00;;;26.91;62.91
45285;BME280;31026;43.780;25.948;2023-08-06T04:19:20;99446.50;;;26.90;62.84
45285;BME280;31026;43.780;25.948;2023-08-06T04:21:48;99432.31;;;26.88;63.06
45285;BME280;31026;43.780;25.948;2023-08-06T04:24:17;99422.06;;;26.90;63.05
45285;BME280;31026;43.780;25.948;2023-08-06T04:26:45;99421.88;;;26.92;62.71
45285;BME280;31026;43.780;25.948;2023-08-06T04:29:16;99429.72;;;27.00;62.49
45285;BME280;31026;43.780;25.948;2023-08-06T04:31:44;99415.31;;;26.99;62.53
45285;BME280;31026;43.780;25.948;2023-08-06T04:34:12;99437.81;;;27.07;62.37
45285;BME280;31026;43.780;25.948;2023-08-06T04:36:41;99442.34;;;27.13;62.21
45285;BME280;31026;43.780;25.948;2023-08-06T04:39:09;99450.69;;;27.11;62.34
45285;BME280;31026;43.780;25.948;2023-08-06T04:41:37;99440.41;;;27.20;62.09
45285;BME280;31026;43.780;25.948;2023-08-06T04:44:06;99439.56;;;27.26;61.83
45285;BME280;31026;43.780;25.948;2023-08-06T04:46:36;99442.06;;;27.28;61.74
45285;BME280;31026;43.780;25.948;2023-08-06T04:49:05;99440.38;;;27.27;61.89
45285;BME280;31026;43.780;25.948;2023-08-06T04:51:33;99428.28;;;27.23;61.99
45285;BME280;31026;43.780;25.948;2023-08-06T04:54:01;99430.81;;;27.24;61.96
45285;BME280;31026;43.780;25.948;2023-08-06T04:56:30;99419.94;;;27.24;61.92
45285;BME280;31026;43.780;25.948;2023-08-06T04:58:58;99423.75;;;27.16;61.76
45285;BME280;31026;43.780;25.948;2023-08-06T05:01:27;99424.13;;;27.20;62.02
45285;BME280;31026;43.780;25.948;2023-08-06T05:03:57;99411.59;;;27.26;61.72
45285;BME280;31026;43.780;25.948;2023-08-06T05:06:26;99412.66;;;27.18;61.94
45285;BME280;31026;43.780;25.948;2023-08-06T05:08:54;99421.38;;;27.27;61.77
45285;BME280;31026;43.780;25.948;2023-08-06T05:11:22;99426.38;;;27.23;62.01
45285;BME280;31026;43.780;25.948;2023-08-06T05:13:51;99411.00;;;27.17;62.13
45285;BME280;31026;43.780;25.948;2023-08-06T05:16:19;99397.88;;;27.14;62.21
45285;BME280;31026;43.780;25.948;2023-08-06T05:18:47;99368.44;;;26.92;61.81
45285;BME280;31026;43.780;25.948;2023-08-06T05:21:18;99428.34;;;27.16;62.13
45285;BME280;31026;43.780;25.948;2023-08-06T05:23:46;99417.53;;;27.09;62.36
45285;BME280;31026;43.780;25.948;2023-08-06T05:26:15;99427.94;;;27.12;62.21
45285;BME280;31026;43.780;25.948;2023-08-06T05:28:44;99410.47;;;27.08;62.43
45285;BME280;31026;43.780;25.948;2023-08-06T05:31:13;99415.22;;;27.13;62.24
45285;BME280;31026;43.780;25.948;2023-08-06T05:33:41;99423.06;;;27.21;62.05
45285;BME280;31026;43.780;25.948;2023-08-06T05:36:09;99406.38;;;27.17;62.26
45285;BME280;31026;43.780;25.948;2023-08-06T05:38:40;99400.94;;;27.24;61.99
45285;BME280;31026;43.780;25.948;2023-08-06T05:41:08;99409.50;;;27.21;61.98
45285;BME280;31026;43.780;25.948;2023-08-06T05:43:37;99399.06;;;27.25;62.00
45285;BME280;31026;43.780;25.948;2023-08-06T05:46:05;99386.63;;;27.10;62.45
45285;BME280;31026;43.780;25.948;2023-08-06T05:48:33;99401.03;;;27.11;62.53
45285;BME280;31026;43.780;25.948;2023-08-06T05:51:02;99383.97;;;27.04;62.43
45285;BME280;31026;43.780;25.948;2023-08-06T05:53:30;99400.84;;;27.06;62.57
45285;BME280;31026;43.780;25.948;2023-08-06T05:56:01;99400.97;;;26.92;62.72
45285;BME280;31026;43.780;25.948;2023-08-06T05:58:29;99405.59;;;26.92;62.76
45285;BME280;31026;43.780;25.948;2023-08-06T06:00:57;99393.88;;;26.91;62.83
45285;BME280;31026;43.780;25.948;2023-08-06T06:03:26;99388.56;;;27.03;62.78
45285;BME280;31026;43.780;25.948;2023-08-06T06:05:54;99394.22;;;27.02;62.45
45285;BME280;31026;43.780;25.948;2023-08-06T06:08:23;99398.25;;;27.17;62.22
45285;BME280;31026;43.780;25.948;2023-08-06T06:10:51;99386.56;;;27.17;62.31
45285;BME280;31026;43.780;25.948;2023-08-06T06:13:22;99381.75;;;27.19;62.08
45285;BME280;31026;43.780;25.948;2023-08-06T06:15:50;99390.38;;;27.09;62.72
45285;BME280;31026;43.780;25.948;2023-08-06T06:18:21;99370.75;;;27.14;62.28
45285;BME280;31026;43.780;25.948;2023-08-06T06:20:50;99381.59;;;27.14;62.39
45285;BME280;31026;43.780;25.948;2023-08-06T06:23:18;99387.38;;;27.24;62.07
45285;BME280;31026;43.780;25.948;2023-08-06T06:25:47;99394.28;;;27.20;62.18
45285;BME280;31026;43.780;25.948;2023-08-06T06:28:16;99395.31;;;27.19;62.23
45285;BME280;31026;43.780;25.948;2023-08-06T06:30:47;99391.56;;;27.20;62.31
45285;BME280;31026;43.780;25.948;2023-08-06T06:33:16;99396.53;;;27.23;62.28
45285;BME280;31026;43.780;25.948;2023-08-06T06:35:44;99393.09;;;27.09;62.39
45285;BME280;31026;43.780;25.948;2023-08-06T06:38:12;99389.63;;;27.02;62.86
45285;BME280;31026;43.780;25.948;2023-08-06T06:40:40;99373.06;;;27.10;62.51
45285;BME280;31026;43.780;25.948;2023-08-06T06:43:09;99394.28;;;27.20;62.21
45285;BME280;31026;43.780;25.948;2023-08-06T06:45:37;99387.84;;;27.14;62.40
45285;BME280;31026;43.780;25.948;2023-08-06T06:48:08;99392.22;;;27.15;62.41
45285;BME280;31026;43.780;25.948;2023-08-06T06:50:36;99376.22;;;27.07;62.42
45285;BME280;31026;43.780;25.948;2023-08-06T06:53:04;99381.22;;;27.10;62.67
45285;BME280;31026;43.780;25.948;2023-08-06T06:55:32;99382.34;;;27.21;62.34
45285;BME280;31026;43.780;25.948;2023-08-06T06:58:01;99378.28;;;27.12;62.47
45285;BME280;31026;43.780;25.948;2023-08-06T07:00:29;99390.88;;;26.99;62.60
45285;BME280;31026;43.780;25.948;2023-08-06T07:02:57;99400.53;;;26.95;62.98
45285;BME280;31026;43.780;25.948;2023-08-06T07:05:28;99396.31;;;26.99;62.98
45285;BME280;31026;43.780;25.948;2023-08-06T07:07:57;99398.41;;;26.97;62.78
45285;BME280;31026;43.780;25.948;2023-08-06T07:10:25;99405.03;;;27.08;62.44
45285;BME280;31026;43.780;25.948;2023-08-06T07:12:54;99386.59;;;26.92;62.90
45285;BME280;31026;43.780;25.948;2023-08-06T07:15:22;99399.38;;;26.85;63.30
45285;BME280;31026;43.780;25.948;2023-08-06T07:17:50;99416.81;;;26.95;63.01
45285;BME280;31026;43.780;25.948;2023-08-06T07:20:18;99407.22;;;26.93;63.09
45285;BME280;31026;43.780;25.948;2023-08-06T07:22:49;99402.69;;;26.87;63.37
45285;BME280;31026;43.780;25.948;2023-08-06T07:25:18;99407.03;;;26.94;63.39
45285;BME280;31026;43.780;25.948;2023-08-06T07:27:46;99392.16;;;26.97;62.92
45285;BME280;31026;43.780;25.948;2023-08-06T07:30:14;99405.19;;;27.13;62.62
45285;BME280;31026;43.780;25.948;2023-08-06T07:32:42;99408.13;;;27.12;62.47
45285;BME280;31026;43.780;25.948;2023-08-06T07:35:11;99412.38;;;27.01;63.15
45285;BME280;31026;43.780;25.948;2023-08-06T07:37:40;99410.94;;;26.98;62.92
45285;BME280;31026;43.780;25.948;2023-08-06T07:40:11;99422.22;;;26.95;63.14
45285;BME280;31026;43.780;25.948;2023-08-06T07:42:40;99421.91;;;27.10;62.87
45285;BME280;31026;43.780;25.948;2023-08-06T07:45:09;99429.34;;;26.96;63.03
45285;BME280;31026;43.780;25.948;2023-08-06T07:47:37;99403.09;;;26.90;63.20
45285;BME280;31026;43.780;25.948;2023-08-06T07:50:06;99406.84;;;26.89;63.10
45285;BME280;31026;43.780;25.948;2023-08-06T07:52:34;99415.56;;;26.98;62.92
45285;BME280;31026;43.780;25.948;2023-08-06T07:55:02;99401.03;;;27.11;62.49
45285;BME280;31026;43.780;25.948;2023-08-06T07:57:34;99412.31;;;27.08;62.66
45285;BME280;31026;43.780;25.948;2023-08-06T08:00:03;99417.81;;;27.01;63.01
45285;BME280;31026;43.780;25.948;2023-08-06T08:02:32;99408.06;;;26.93;63.16
45285;BME280;31026;43.780;25.948;2023-08-06T08:05:00;99416.38;;;26.98;63.06
45285;BME280;31026;43.780;25.948;2023-08-06T08:07:29;99414.16;;;26.89;63.29
45285;BME280;31026;43.780;25.948;2023-08-06T08:09:57;99417.38;;;27.04;63.07
45285;BME280;31026;43.780;25.948;2023-08-06T08:12:25;99400.19;;;26.85;63.22
45285;BME280;31026;43.780;25.948;2023-08-06T08:14:56;99411.03;;;26.85;63.37
45285;BME280;31026;43.780;25.948;2023-08-06T08:17:25;99426.28;;;26.86;63.44
45285;BME280;31026;43.780;25.948;2023-08-06T08:19:53;99424.19;;;26.88;63.23
45285;BME280;31026;43.780;25.948;2023-08-06T08:22:21;99439.84;;;26.86;63.55
45285;BME280;31026;43.780;25.948;2023-08-06T08:24:49;99456.94;;;26.87;63.59
45285;BME280;31026;43.780;25.948;2023-08-06T08:27:18;99459.00;;;26.91;63.43
45285;BME280;31026;43.780;25.948;2023-08-06T08:29:46;99464.41;;;26.91;63.25
45285;BME280;31026;43.780;25.948;2023-08-06T08:32:17;99455.84;;;26.94;63.08
45285;BME280;31026;43.780;25.948;2023-08-06T08:34:45;99454.50;;;27.04;62.95
45285;BME280;31026;43.780;25.948;2023-08-06T08:37:13;99450.56;;;26.99;62.92
45285;BME280;31026;43.780;25.948;2023-08-06T08:39:42;99458.16;;;26.91;63.37
45285;BME280;31026;43.780;25.948;2023-08-06T08:42:10;99453.16;;;26.88;63.21
45285;BME280;31026;43.780;25.948;2023-08-06T08:44:38;99446.50;;;26.90;63.28
45285;BME280;31026;43.780;25.948;2023-08-06T08:47:08;99451.72;;;26.85;63.33
45285;BME280;31026;43.780;25.948;2023-08-06T08:49:39;99463.66;;;26.84;63.60
45285;BME280;31026;43.780;25.948;2023-08-06T08:52:08;99474.09;;;26.81;63.69
45285;BME280;31026;43.780;25.948;2023-08-06T08:54:38;99484.91;;;26.87;63.33
45285;BME280;31026;43.780;25.948;2023-08-06T08:57:06;99481.16;;;26.88;63.31
45285;BME280;31026;43.780;25.948;2023-08-06T08:59:35;99464.41;;;26.91;63.39
45285;BME280;31026;43.780;25.948;2023-08-06T09:02:03;99479.44;;;26.94;63.11
45285;BME280;31026;43.780;25.948;2023-08-06T09:04:32;99461.91;;;26.90;63.37
45285;BME280;31026;43.780;25.948;2023-08-06T09:07:04;99435.63;;;26.90;63.31
45285;BME280;31026;43.780;25.948;2023-08-06T09:09:34;99440.63;;;26.93;63.13
45285;BME280;31026;43.780;25.948;2023-08-06T09:12:06;99458.50;;;27.01;62.97
45285;BME280;31026;43.780;25.948;2023-08-06T09:14:39;99453.53;;;26.98;63.11
45285;BME280;31026;43.780;25.948;2023-08-06T09:17:07;99443.66;;;27.04;63.27
45285;BME280;31026;43.780;25.948;2023-08-06T09:19:36;99445.16;;;26.99;63.08
45285;BME280;31026;43.780;25.948;2023-08-06T09:22:06;99443.16;;;27.13;62.61
45285;BME280;31026;43.780;25.948;2023-08-06T09:24:38;99437.97;;;27.12;62.61
45285;BME280;31026;43.780;25.948;2023-08-06T09:27:10;99434.19;;;27.13;62.98
45285;BME280;31026;43.780;25.948;2023-08-06T09:29:40;99421.69;;;27.12;63.02
45285;BME280;31026;43.780;25.948;2023-08-06T09:32:08;99413.31;;;27.13;62.90
45285;BME280;31026;43.780;25.948;2023-08-06T09:34:38;99396.50;;;27.05;62.90
45285;BME280;31026;43.780;25.948;2023-08-06T09:37:10;99404.81;;;27.10;62.90
45285;BME280;31026;43.780;25.948;2023-08-06T09:39:39;99395.81;;;27.09;62.88
45285;BME280;31026;43.780;25.948;2023-08-06T09:42:08;99399.75;;;27.13;62.73
45285;BME280;31026;43.780;25.948;2023-08-06T09:44:36;99387.75;;;27.03;62.92
45285;BME280;31026;43.780;25.948;2023-08-06T09:47:08;99370.88;;;27.01;63.08
45285;BME280;31026;43.780;25.948;2023-08-06T09:49:43;99388.41;;;26.98;63.21
45285;BME280;31026;43.780;25.948;2023-08-06T09:52:13;99423.94;;;26.90;63.39
45285;BME280;31026;43.780;25.948;2023-08-06T09:54:42;99407.63;;;26.96;63.50
45285;BME280;31026;43.780;25.948;2023-08-06T09:57:11;99405.06;;;27.02;63.18
45285;BME280;31026;43.780;25.948;2023-08-06T09:59:40;99419.00;;;27.12;63.13
45285;BME280;31026;43.780;25.948;2023-08-06T10:02:13;99414.59;;;27.11;62.89
45285;BME280;31026;43.780;25.948;2023-08-06T10:04:42;99434.28;;;26.99;63.37
45285;BME280;31026;43.780;25.948;2023-08-06T10:07:15;99450.69;;;26.86;63.63
45285;BME280;31026;43.780;25.948;2023-08-06T10:09:43;99470.72;;;26.85;63.79
45285;BME280;31026;43.780;25.948;2023-08-06T10:12:12;99486.31;;;26.96;63.43
45285;BME280;31026;43.780;25.948;2023-08-06T10:14:40;99473.16;;;26.93;63.34
45285;BME280;31026;43.780;25.948;2023-08-06T10:17:09;99417.53;;;26.84;63.69
45285;BME280;31026;43.780;25.948;2023-08-06T10:19:38;99410.22;;;26.85;63.78
45285;BME280;31026;43.780;25.948;2023-08-06T10:22:09;99425.44;;;26.86;63.71
45285;BME280;31026;43.780;25.948;2023-08-06T10:24:53;99468.28;;;26.77;63.74
45285;BME280;31026;43.780;25.948;2023-08-06T10:27:22;99497.69;;;26.80;63.84
45285;BME280;31026;43.780;25.948;2023-08-06T10:29:51;99494.03;;;26.93;63.39
45285;BME280;31026;43.780;25.948;2023-08-06T10:32:19;99501.16;;;26.87;63.71
45285;BME280;31026;43.780;25.948;2023-08-06T10:34:54;99492.59;;;26.90;63.60
45285;BME280;31026;43.780;25.948;2023-08-06T10:37:23;99490.16;;;26.82;63.87
45285;BME280;31026;43.780;25.948;2023-08-06T10:39:54;99478.25;;;26.83;63.56
45285;BME280;31026;43.780;25.948;2023-08-06T10:42:22;99441.97;;;26.77;63.80
45285;BME280;31026;43.780;25.948;2023-08-06T10:47:38;99397.94;;;26.82;63.60
45285;BME280;31026;43.780;25.948;2023-08-06T10:50:07;99389.41;;;26.78;63.66
45285;BME280;31026;43.780;25.948;2023-08-06T10:52:35;99398.81;;;26.76;63.95
45285;BME280;31026;43.780;25.948;2023-08-06T10:55:06;99427.78;;;26.82;63.92
45285;BME280;31026;43.780;25.948;2023-08-06T10:57:35;99437.56;;;26.83;63.98
45285;BME280;31026;43.780;25.948;2023-08-06T11:00:04;99434.84;;;26.83;63.76
45285;BME280;31026;43.780;25.948;2023-08-06T11:02:33;99456.53;;;26.83;63.96
45285;BME280;31026;43.780;25.948;2023-08-06T11:05:05;99489.09;;;26.83;63.67
45285;BME280;31026;43.780;25.948;2023-08-06T11:07:34;99510.38;;;26.86;63.86
45285;BME280;31026;43.780;25.948;2023-08-06T11:10:02;99516.44;;;26.82;63.60
45285;BME280;31026;43.780;25.948;2023-08-06T11:12:34;99517.69;;;26.79;63.85
45285;BME280;31026;43.780;25.948;2023-08-06T11:15:02;99515.41;;;26.83;63.96
45285;BME280;31026;43.780;25.948;2023-08-06T11:17:32;99496.00;;;26.79;63.67
45285;BME280;31026;43.780;25.948;2023-08-06T11:20:01;99474.97;;;26.74;63.95
45285;BME280;31026;43.780;25.948;2023-08-06T11:22:30;99479.31;;;26.82;63.87
45285;BME280;31026;43.780;25.948;2023-08-06T11:24:58;99473.84;;;26.89;63.67
45285;BME280;31026;43.780;25.948;2023-08-06T11:27:27;99458.28;;;27.03;63.06
45285;BME280;31026;43.780;25.948;2023-08-06T11:29:58;99463.09;;;27.01;63.07
45285;BME280;31026;43.780;25.948;2023-08-06T11:32:27;99461.88;;;26.96;63.58
45285;BME280;31026;43.780;25.948;2023-08-06T11:34:55;99442.16;;;27.08;63.06
45285;BME280;31026;43.780;25.948;2023-08-06T11:37:23;99428.38;;;27.09;62.97
45285;BME280;31026;43.780;25.948;2023-08-06T11:39:52;99425.03;;;27.14;62.87
45285;BME280;31026;43.780;25.948;2023-08-06T11:42:21;99455.84;;;27.19;62.74
45285;BME280;31026;43.780;25.948;2023-08-06T11:44:50;99421.31;;;27.08;62.90
45285;BME280;31026;43.780;25.948;2023-08-06T11:47:21;99421.31;;;27.08;62.81
45285;BME280;31026;43.780;25.948;2023-08-06T11:49:50;99433.38;;;27.12;63.00
45285;BME280;31026;43.780;25.948;2023-08-06T11:52:18;99419.41;;;27.09;62.95
45285;BME280;31026;43.780;25.948;2023-08-06T11:54:59;99421.44;;;27.13;62.65
45285;BME280;31026;43.780;25.948;2023-08-06T11:57:29;99432.91;;;27.15;62.65
45285;BME280;31026;43.780;25.948;2023-08-06T11:59:58;99442.94;;;27.15;62.63
45285;BME280;31026;43.780;25.948;2023-08-06T12:02:30;99437.47;;;27.22;62.58
45285;BME280;31026;43.780;25.948;2023-08-06T12:05:02;99434.66;;;27.10;62.75
45285;BME280;31026;43.780;25.948;2023-08-06T12:07:31;99431.31;;;27.08;63.04
45285;BME280;31026;43.780;25.948;2023-08-06T12:10:00;99432.56;;;27.12;63.08
45285;BME280;31026;43.780;25.948;2023-08-06T12:12:28;99448.94;;;26.98;63.48
45285;BME280;31026;43.780;25.948;2023-08-06T12:14:56;99434.69;;;27.03;63.32
45285;BME280;31026;43.780;25.948;2023-08-06T12:17:25;99439.28;;;27.03;63.08
45285;BME280;31026;43.780;25.948;2023-08-06T12:19:56;99454.84;;;26.89;63.59
45285;BME280;31026;43.780;25.948;2023-08-06T12:22:24;99450.69;;;26.86;63.77
45285;BME280;31026;43.780;25.948;2023-08-06T12:24:52;99437.78;;;26.82;63.74
45285;BME280;31026;43.780;25.948;2023-08-06T12:27:21;99418.16;;;26.86;63.50
45285;BME280;31026;43.780;25.948;2023-08-06T12:29:49;99404.59;;;26.86;63.69
45285;BME280;31026;43.780;25.948;2023-08-06T12:32:17;99431.88;;;26.91;63.65
45285;BME280;31026;43.780;25.948;2023-08-06T12:34:47;99383.88;;;26.92;63.61
45285;BME280;31026;43.780;25.948;2023-08-06T12:37:18;99376.91;;;27.03;63.16
45285;BME280;31026;43.780;25.948;2023-08-06T12:39:46;99387.97;;;27.01;63.04
45285;BME280;31026;43.780;25.948;2023-08-06T12:42:15;99399.38;;;27.10;63.07
45285;BME280;31026;43.780;25.948;2023-08-06T12:44:43;99412.16;;;27.03;63.14
45285;BME280;31026;43.780;25.948;2023-08-06T12:47:11;99412.16;;;27.03;63.18
45285;BME280;31026;43.780;25.948;2023-08-06T12:49:40;99425.06;;;27.07;62.85
45285;BME280;31026;43.780;25.948;2023-08-06T12:52:08;99426.44;;;26.91;63.61
45285;BME280;31026;43.780;25.948;2023-08-06T12:54:40;99437.75;;;26.88;63.36
45285;BME280;31026;43.780;25.948;2023-08-06T12:57:11;99438.09;;;26.98;63.43
45285;BME280;31026;43.780;25.948;2023-08-06T12:59:39;99427.91;;;26.94;63.26
45285;BME280;31026;43.780;25.948;2023-08-06T13:02:08;99429.25;;;27.03;63.17